sensor_id;sensor_type;location;lat;lon;timestamp;P1;durP1;ratioP1;P2;durP2;ratioP2
27895;SDS011;15241;48.374;10.876;2023-05-07T00:00:47;6.95;;;3.80;;
27895;SDS011;15241;48.374;10.876;2023-05-07T00:05:46;6.15;;;3.80;;
27895;SDS011;15241;48.374;10.876;2023-05-07T00:10:45;4.75;;;4.05;;
27895;SDS011;15241;48.374;10.876;2023-05-07T00:15:44;5.40;;;4.10;;
27895;SDS011;15241;48.374;10.876;2023-05-07T00:20:43;5.47;;;4.35;;
27895;SDS011;15241;48.374;10.876;2023-05-07T00:25:42;5.10;;;4.40;;
27895;SDS011;15241;48.374;10.876;2023-05-07T00:30:41;8.43;;;5.00;;
27895;SDS011;15241;48.374;10.876;2023-05-07T00:35:40;6.25;;;4.58;;
27895;SDS011;15241;48.374;10.876;2023-05-07T00:40:39;7.00;;;4.83;;
27895;SDS011;15241;48.374;10.876;2023-05-07T00:45:38;6.53;;;4.60;;
27895;SDS011;15241;48.374;10.876;2023-05-07T00:50:37;6.90;;;4.45;;
27895;SDS011;15241;48.374;10.876;2023-05-07T00:55:36;8.40;;;4.17;;
27895;SDS011;15241;48.374;10.876;2023-05-07T01:00:36;6.95;;;4.72;;
27895;SDS011;15241;48.374;10.876;2023-05-07T01:05:34;11.45;;;4.40;;
27895;SDS011;15241;48.374;10.876;2023-05-07T01:10:34;5.72;;;4.87;;
27895;SDS011;15241;48.374;10.876;2023-05-07T01:15:33;8.08;;;4.53;;
27895;SDS011;15241;48.374;10.876;2023-05-07T01:20:32;5.72;;;5.08;;
27895;SDS011;15241;48.374;10.876;2023-05-07T01:25:31;8.28;;;5.60;;
27895;SDS011;15241;48.374;10.876;2023-05-07T01:30:31;8.00;;;4.70;;
27895;SDS011;15241;48.374;10.876;2023-05-07T01:35:34;6.72;;;4.80;;
27895;SDS011;15241;48.374;10.876;2023-05-07T01:40:35;6.25;;;4.80;;
27895;SDS011;15241;48.374;10.876;2023-05-07T01:45:35;4.92;;;3.95;;
27895;SDS011;15241;48.374;10.876;2023-05-07T01:50:35;5.35;;;3.60;;
27895;SDS011;15241;48.374;10.876;2023-05-07T01:55:36;4.17;;;3.77;;
27895;SDS011;15241;48.374;10.876;2023-05-07T02:00:35;4.22;;;3.83;;
27895;SDS011;15241;48.374;10.876;2023-05-07T02:05:34;8.05;;;4.22;;
27895;SDS011;15241;48.374;10.876;2023-05-07T02:10:32;4.65;;;3.90;;
27895;SDS011;15241;48.374;10.876;2023-05-07T02:15:31;5.15;;;4.03;;
27895;SDS011;15241;48.374;10.876;2023-05-07T02:20:30;9.40;;;4.58;;
27895;SDS011;15241;48.374;10.876;2023-05-07T02:25:29;6.15;;;4.22;;
27895;SDS011;15241;48.374;10.876;2023-05-07T02:30:28;7.30;;;4.30;;
27895;SDS011;15241;48.374;10.876;2023-05-07T02:35:27;5.10;;;4.37;;
27895;SDS011;15241;48.374;10.876;2023-05-07T02:40:26;4.67;;;4.17;;
27895;SDS011;15241;48.374;10.876;2023-05-07T02:45:26;5.83;;;4.20;;
27895;SDS011;15241;48.374;10.876;2023-05-07T02:50:25;4.83;;;4.08;;
27895;SDS011;15241;48.374;10.876;2023-05-07T02:55:23;7.03;;;4.62;;
27895;SDS011;15241;48.374;10.876;2023-05-07T03:00:23;7.58;;;4.45;;
27895;SDS011;15241;48.374;10.876;2023-05-07T03:05:22;7.00;;;4.37;;
27895;SDS011;15241;48.374;10.876;2023-05-07T03:10:21;6.47;;;5.30;;
27895;SDS011;15241;48.374;10.876;2023-05-07T03:15:20;6.33;;;5.45;;
27895;SDS011;15241;48.374;10.876;2023-05-07T03:20:20;9.65;;;5.65;;
27895;SDS011;15241;48.374;10.876;2023-05-07T03:25:18;7.40;;;5.87;;
27895;SDS011;15241;48.374;10.876;2023-05-07T03:30:18;7.58;;;5.47;;
27895;SDS011;15241;48.374;10.876;2023-05-07T03:35:17;9.73;;;5.12;;
27895;SDS011;15241;48.374;10.876;2023-05-07T03:40:17;7.75;;;4.95;;
27895;SDS011;15241;48.374;10.876;2023-05-07T03:45:16;7.37;;;5.60;;
27895;SDS011;15241;48.374;10.876;2023-05-07T03:50:15;7.15;;;5.25;;
27895;SDS011;15241;48.374;10.876;2023-05-07T03:55:14;6.85;;;4.67;;
27895;SDS011;15241;48.374;10.876;2023-05-07T04:00:14;5.92;;;4.50;;
27895;SDS011;15241;48.374;10.876;2023-05-07T04:05:13;8.75;;;4.87;;
27895;SDS011;15241;48.374;10.876;2023-05-07T04:10:12;7.58;;;4.50;;
27895;SDS011;15241;48.374;10.876;2023-05-07T04:15:11;8.60;;;5.47;;
27895;SDS011;15241;48.374;10.876;2023-05-07T04:20:13;6.60;;;4.25;;
27895;SDS011;15241;48.374;10.876;2023-05-07T04:25:13;5.65;;;4.35;;
27895;SDS011;15241;48.374;10.876;2023-05-07T04:30:14;6.75;;;5.05;;
27895;SDS011;15241;48.374;10.876;2023-05-07T04:35:13;6.00;;;4.60;;
27895;SDS011;15241;48.374;10.876;2023-05-07T04:40:12;7.30;;;4.62;;
27895;SDS011;15241;48.374;10.876;2023-05-07T04:45:11;5.62;;;4.47;;
27895;SDS011;15241;48.374;10.876;2023-05-07T04:50:10;8.08;;;4.30;;
27895;SDS011;15241;48.374;10.876;2023-05-07T04:55:10;7.03;;;4.58;;
27895;SDS011;15241;48.374;10.876;2023-05-07T05:00:10;6.50;;;3.92;;
27895;SDS011;15241;48.374;10.876;2023-05-07T05:05:09;7.10;;;4.58;;
27895;SDS011;15241;48.374;10.876;2023-05-07T05:10:09;8.65;;;5.15;;
27895;SDS011;15241;48.374;10.876;2023-05-07T05:15:10;6.17;;;4.70;;
27895;SDS011;15241;48.374;10.876;2023-05-07T05:20:11;8.53;;;4.78;;
27895;SDS011;15241;48.374;10.876;2023-05-07T05:25:10;5.08;;;4.58;;
27895;SDS011;15241;48.374;10.876;2023-05-07T05:30:10;4.90;;;4.37;;
27895;SDS011;15241;48.374;10.876;2023-05-07T05:35:10;9.98;;;4.83;;
27895;SDS011;15241;48.374;10.876;2023-05-07T05:40:10;6.83;;;4.97;;
27895;SDS011;15241;48.374;10.876;2023-05-07T05:45:10;6.85;;;5.67;;
27895;SDS011;15241;48.374;10.876;2023-05-07T05:50:09;5.80;;;5.20;;
27895;SDS011;15241;48.374;10.876;2023-05-07T05:55:09;5.85;;;4.90;;
27895;SDS011;15241;48.374;10.876;2023-05-07T06:00:09;5.87;;;5.03;;
27895;SDS011;15241;48.374;10.876;2023-05-07T06:05:09;5.20;;;4.70;;
27895;SDS011;15241;48.374;10.876;2023-05-07T06:10:08;6.10;;;5.10;;
27895;SDS011;15241;48.374;10.876;2023-05-07T06:15:09;6.53;;;4.78;;
27895;SDS011;15241;48.374;10.876;2023-05-07T06:20:09;5.40;;;4.90;;
27895;SDS011;15241;48.374;10.876;2023-05-07T06:25:09;5.65;;;4.60;;
27895;SDS011;15241;48.374;10.876;2023-05-07T06:30:08;5.25;;;4.10;;
27895;SDS011;15241;48.374;10.876;2023-05-07T06:35:08;8.35;;;4.87;;
27895;SDS011;15241;48.374;10.876;2023-05-07T06:40:09;5.25;;;4.75;;
27895;SDS011;15241;48.374;10.876;2023-05-07T06:45:10;7.53;;;5.10;;
27895;SDS011;15241;48.374;10.876;2023-05-07T06:50:10;5.60;;;4.97;;
27895;SDS011;15241;48.374;10.876;2023-05-07T06:55:09;5.00;;;4.50;;
27895;SDS011;15241;48.374;10.876;2023-05-07T07:00:09;5.15;;;4.37;;
27895;SDS011;15241;48.374;10.876;2023-05-07T07:05:09;5.95;;;4.80;;
27895;SDS011;15241;48.374;10.876;2023-05-07T07:10:09;7.92;;;4.40;;
27895;SDS011;15241;48.374;10.876;2023-05-07T07:15:09;5.17;;;4.67;;
27895;SDS011;15241;48.374;10.876;2023-05-07T07:20:09;7.50;;;5.30;;
27895;SDS011;15241;48.374;10.876;2023-05-07T07:25:09;10.28;;;5.35;;
27895;SDS011;15241;48.374;10.876;2023-05-07T07:30:09;6.15;;;4.97;;
27895;SDS011;15241;48.374;10.876;2023-05-07T07:35:09;6.25;;;4.80;;
27895;SDS011;15241;48.374;10.876;2023-05-07T07:40:09;5.22;;;4.70;;
27895;SDS011;15241;48.374;10.876;2023-05-07T07:45:09;6.37;;;4.97;;
27895;SDS011;15241;48.374;10.876;2023-05-07T07:50:09;5.58;;;5.08;;
27895;SDS011;15241;48.374;10.876;2023-05-07T07:55:09;6.58;;;4.70;;
27895;SDS011;15241;48.374;10.876;2023-05-07T08:00:09;5.58;;;4.72;;
27895;SDS011;15241;48.374;10.876;2023-05-07T08:05:09;5.83;;;4.62;;
27895;SDS011;15241;48.374;10.876;2023-05-07T08:10:09;4.87;;;4.33;;
27895;SDS011;15241;48.374;10.876;2023-05-07T08:15:09;4.95;;;4.30;;
27895;SDS011;15241;48.374;10.876;2023-05-07T08:20:09;5.03;;;4.20;;
27895;SDS011;15241;48.374;10.876;2023-05-07T08:25:09;4.90;;;4.00;;
27895;SDS011;15241;48.374;10.876;2023-05-07T08:30:09;4.35;;;3.95;;
27895;SDS011;15241;48.374;10.876;2023-05-07T08:35:10;6.55;;;4.03;;
27895;SDS011;15241;48.374;10.876;2023-05-07T08:40:09;6.12;;;3.50;;
27895;SDS011;15241;48.374;10.876;2023-05-07T08:45:10;3.60;;;3.30;;
27895;SDS011;15241;48.374;10.876;2023-05-07T08:50:10;7.58;;;3.72;;
27895;SDS011;15241;48.374;10.876;2023-05-07T08:55:09;3.87;;;3.50;;
27895;SDS011;15241;48.374;10.876;2023-05-07T09:00:11;3.62;;;3.22;;
27895;SDS011;15241;48.374;10.876;2023-05-07T09:05:11;3.98;;;2.80;;
27895;SDS011;15241;48.374;10.876;2023-05-07T09:10:12;3.83;;;2.95;;
27895;SDS011;15241;48.374;10.876;2023-05-07T09:15:11;2.67;;;2.47;;
27895;SDS011;15241;48.374;10.876;2023-05-07T09:20:12;3.10;;;2.47;;
27895;SDS011;15241;48.374;10.876;2023-05-07T09:25:11;5.42;;;3.12;;
27895;SDS011;15241;48.374;10.876;2023-05-07T09:30:11;3.75;;;3.02;;
27895;SDS011;15241;48.374;10.876;2023-05-07T09:35:15;5.25;;;2.20;;
27895;SDS011;15241;48.374;10.876;2023-05-07T09:40:24;2.47;;;2.27;;
27895;SDS011;15241;48.374;10.876;2023-05-07T09:45:25;2.60;;;2.22;;
27895;SDS011;15241;48.374;10.876;2023-05-07T09:50:26;3.72;;;1.90;;
27895;SDS011;15241;48.374;10.876;2023-05-07T09:55:26;1.15;;;1.00;;
27895;SDS011;15241;48.374;10.876;2023-05-07T10:00:25;2.02;;;1.00;;
27895;SDS011;15241;48.374;10.876;2023-05-07T10:05:26;4.35;;;1.52;;
27895;SDS011;15241;48.374;10.876;2023-05-07T10:10:25;2.70;;;1.05;;
27895;SDS011;15241;48.374;10.876;2023-05-07T10:15:26;2.98;;;1.30;;
27895;SDS011;15241;48.374;10.876;2023-05-07T10:20:26;1.40;;;1.10;;
27895;SDS011;15241;48.374;10.876;2023-05-07T10:25:28;2.45;;;1.30;;
27895;SDS011;15241;48.374;10.876;2023-05-07T10:30:31;1.57;;;1.30;;
27895;SDS011;15241;48.374;10.876;2023-05-07T10:35:30;2.75;;;0.85;;
27895;SDS011;15241;48.374;10.876;2023-05-07T10:40:31;1.15;;;1.02;;
27895;SDS011;15241;48.374;10.876;2023-05-07T10:45:31;3.08;;;1.32;;
27895;SDS011;15241;48.374;10.876;2023-05-07T10:50:30;1.60;;;1.05;;
27895;SDS011;15241;48.374;10.876;2023-05-07T10:55:29;1.55;;;1.12;;
27895;SDS011;15241;48.374;10.876;2023-05-07T11:00:43;1.00;;;0.88;;
27895;SDS011;15241;48.374;10.876;2023-05-07T11:05:42;1.12;;;0.80;;
27895;SDS011;15241;48.374;10.876;2023-05-07T11:10:51;1.25;;;1.00;;
27895;SDS011;15241;48.374;10.876;2023-05-07T11:15:51;0.98;;;0.80;;
27895;SDS011;15241;48.374;10.876;2023-05-07T11:20:54;1.30;;;0.90;;
27895;SDS011;15241;48.374;10.876;2023-05-07T11:25:58;1.10;;;1.10;;
27895;SDS011;15241;48.374;10.876;2023-05-07T11:30:58;1.02;;;1.00;;
27895;SDS011;15241;48.374;10.876;2023-05-07T11:35:57;1.50;;;1.20;;
27895;SDS011;15241;48.374;10.876;2023-05-07T11:40:57;1.62;;;1.30;;
27895;SDS011;15241;48.374;10.876;2023-05-07T11:46:04;3.15;;;1.37;;
27895;SDS011;15241;48.374;10.876;2023-05-07T11:51:03;1.65;;;1.00;;
27895;SDS011;15241;48.374;10.876;2023-05-07T11:56:06;1.22;;;1.12;;
27895;SDS011;15241;48.374;10.876;2023-05-07T12:01:07;3.10;;;1.10;;
27895;SDS011;15241;48.374;10.876;2023-05-07T12:06:07;1.82;;;1.20;;
27895;SDS011;15241;48.374;10.876;2023-05-07T12:11:07;1.27;;;1.17;;
27895;SDS011;15241;48.374;10.876;2023-05-07T12:16:07;1.95;;;1.32;;
27895;SDS011;15241;48.374;10.876;2023-05-07T12:21:06;2.08;;;1.17;;
27895;SDS011;15241;48.374;10.876;2023-05-07T12:26:06;3.35;;;1.45;;
27895;SDS011;15241;48.374;10.876;2023-05-07T12:31:05;2.05;;;1.22;;
27895;SDS011;15241;48.374;10.876;2023-05-07T12:36:06;2.55;;;1.30;;
27895;SDS011;15241;48.374;10.876;2023-05-07T12:41:06;1.40;;;1.30;;
27895;SDS011;15241;48.374;10.876;2023-05-07T12:46:07;3.20;;;1.60;;
27895;SDS011;15241;48.374;10.876;2023-05-07T12:51:06;1.67;;;1.37;;
27895;SDS011;15241;48.374;10.876;2023-05-07T12:56:06;1.92;;;1.37;;
27895;SDS011;15241;48.374;10.876;2023-05-07T13:01:05;3.45;;;1.37;;
27895;SDS011;15241;48.374;10.876;2023-05-07T13:06:06;2.08;;;1.45;;
27895;SDS011;15241;48.374;10.876;2023-05-07T13:11:07;2.65;;;1.65;;
27895;SDS011;15241;48.374;10.876;2023-05-07T13:16:07;2.47;;;1.40;;
27895;SDS011;15241;48.374;10.876;2023-05-07T13:21:07;4.08;;;1.45;;
27895;SDS011;15241;48.374;10.876;2023-05-07T13:26:07;1.60;;;1.50;;
27895;SDS011;15241;48.374;10.876;2023-05-07T13:31:06;1.80;;;1.70;;
27895;SDS011;15241;48.374;10.876;2023-05-07T13:36:05;4.08;;;1.40;;
27895;SDS011;15241;48.374;10.876;2023-05-07T13:41:04;1.60;;;1.50;;
27895;SDS011;15241;48.374;10.876;2023-05-07T13:46:03;1.82;;;1.37;;
27895;SDS011;15241;48.374;10.876;2023-05-07T13:51:02;2.15;;;1.40;;
27895;SDS011;15241;48.374;10.876;2023-05-07T13:56:10;4.80;;;1.40;;
27895;SDS011;15241;48.374;10.876;2023-05-07T14:01:09;2.02;;;1.72;;
27895;SDS011;15241;48.374;10.876;2023-05-07T14:06:08;1.67;;;1.57;;
27895;SDS011;15241;48.374;10.876;2023-05-07T14:11:08;2.33;;;1.67;;
27895;SDS011;15241;48.374;10.876;2023-05-07T14:16:07;2.35;;;1.12;;
27895;SDS011;15241;48.374;10.876;2023-05-07T14:21:06;1.52;;;1.42;;
27895;SDS011;15241;48.374;10.876;2023-05-07T14:26:05;2.35;;;1.95;;
27895;SDS011;15241;48.374;10.876;2023-05-07T14:31:04;4.33;;;1.62;;
27895;SDS011;15241;48.374;10.876;2023-05-07T14:36:03;2.58;;;1.35;;
27895;SDS011;15241;48.374;10.876;2023-05-07T14:41:02;3.77;;;1.20;;
27895;SDS011;15241;48.374;10.876;2023-05-07T14:46:01;2.98;;;1.30;;
27895;SDS011;15241;48.374;10.876;2023-05-07T14:51:00;1.65;;;1.37;;
27895;SDS011;15241;48.374;10.876;2023-05-07T14:55:59;3.50;;;2.10;;
27895;SDS011;15241;48.374;10.876;2023-05-07T15:00:59;1.92;;;1.52;;
27895;SDS011;15241;48.374;10.876;2023-05-07T15:05:58;2.65;;;1.50;;
27895;SDS011;15241;48.374;10.876;2023-05-07T15:10:57;4.17;;;2.10;;
27895;SDS011;15241;48.374;10.876;2023-05-07T15:15:56;2.37;;;1.67;;
27895;SDS011;15241;48.374;10.876;2023-05-07T15:20:55;1.50;;;1.40;;
27895;SDS011;15241;48.374;10.876;2023-05-07T15:25:55;4.10;;;1.50;;
27895;SDS011;15241;48.374;10.876;2023-05-07T15:30:54;2.35;;;1.40;;
27895;SDS011;15241;48.374;10.876;2023-05-07T15:35:53;1.65;;;1.37;;
27895;SDS011;15241;48.374;10.876;2023-05-07T15:40:51;1.98;;;1.52;;
27895;SDS011;15241;48.374;10.876;2023-05-07T15:45:50;2.10;;;1.75;;
27895;SDS011;15241;48.374;10.876;2023-05-07T15:50:49;1.80;;;1.60;;
27895;SDS011;15241;48.374;10.876;2023-05-07T15:55:48;2.15;;;1.32;;
27895;SDS011;15241;48.374;10.876;2023-05-07T16:00:47;1.82;;;1.37;;
27895;SDS011;15241;48.374;10.876;2023-05-07T16:05:46;2.25;;;1.50;;
27895;SDS011;15241;48.374;10.876;2023-05-07T16:10:45;2.55;;;1.47;;
27895;SDS011;15241;48.374;10.876;2023-05-07T16:15:44;2.17;;;1.82;;
27895;SDS011;15241;48.374;10.876;2023-05-07T16:20:44;2.08;;;1.50;;
27895;SDS011;15241;48.374;10.876;2023-05-07T16:25:43;1.98;;;1.50;;
27895;SDS011;15241;48.374;10.876;2023-05-07T16:30:42;2.17;;;1.92;;
27895;SDS011;15241;48.374;10.876;2023-05-07T16:35:41;3.72;;;1.92;;
27895;SDS011;15241;48.374;10.876;2023-05-07T16:40:40;2.05;;;1.65;;
27895;SDS011;15241;48.374;10.876;2023-05-07T16:45:39;2.50;;;1.72;;
27895;SDS011;15241;48.374;10.876;2023-05-07T16:50:38;2.22;;;1.67;;
27895;SDS011;15241;48.374;10.876;2023-05-07T16:55:37;1.57;;;1.47;;
27895;SDS011;15241;48.374;10.876;2023-05-07T17:00:36;1.72;;;1.50;;
27895;SDS011;15241;48.374;10.876;2023-05-07T17:05:35;3.80;;;1.80;;
27895;SDS011;15241;48.374;10.876;2023-05-07T17:10:34;3.98;;;1.95;;
27895;SDS011;15241;48.374;10.876;2023-05-07T17:15:33;3.77;;;1.90;;
27895;SDS011;15241;48.374;10.876;2023-05-07T17:20:32;2.40;;;2.20;;
27895;SDS011;15241;48.374;10.876;2023-05-07T17:25:32;4.35;;;2.50;;
27895;SDS011;15241;48.374;10.876;2023-05-07T17:30:32;2.87;;;2.40;;
27895;SDS011;15241;48.374;10.876;2023-05-07T17:35:31;3.10;;;1.72;;
27895;SDS011;15241;48.374;10.876;2023-05-07T17:40:30;2.42;;;2.00;;
27895;SDS011;15241;48.374;10.876;2023-05-07T17:45:31;6.83;;;5.30;;
27895;SDS011;15241;48.374;10.876;2023-05-07T17:50:30;4.72;;;4.33;;
27895;SDS011;15241;48.374;10.876;2023-05-07T17:55:30;3.17;;;2.17;;
27895;SDS011;15241;48.374;10.876;2023-05-07T18:00:29;2.80;;;1.92;;
27895;SDS011;15241;48.374;10.876;2023-05-07T18:05:28;2.50;;;2.15;;
27895;SDS011;15241;48.374;10.876;2023-05-07T18:10:27;6.15;;;2.02;;
27895;SDS011;15241;48.374;10.876;2023-05-07T18:15:26;2.27;;;1.70;;
27895;SDS011;15241;48.374;10.876;2023-05-07T18:20:25;5.20;;;2.12;;
27895;SDS011;15241;48.374;10.876;2023-05-07T18:25:25;2.62;;;2.20;;
27895;SDS011;15241;48.374;10.876;2023-05-07T18:30:24;2.70;;;1.87;;
27895;SDS011;15241;48.374;10.876;2023-05-07T18:35:23;3.87;;;2.02;;
27895;SDS011;15241;48.374;10.876;2023-05-07T18:40:21;2.80;;;2.12;;
27895;SDS011;15241;48.374;10.876;2023-05-07T18:45:21;2.72;;;2.45;;
27895;SDS011;15241;48.374;10.876;2023-05-07T18:50:20;5.15;;;2.55;;
27895;SDS011;15241;48.374;10.876;2023-05-07T18:55:19;5.35;;;3.20;;
27895;SDS011;15241;48.374;10.876;2023-05-07T19:00:18;2.47;;;2.20;;
27895;SDS011;15241;48.374;10.876;2023-05-07T19:05:18;3.35;;;2.00;;
27895;SDS011;15241;48.374;10.876;2023-05-07T19:10:17;3.70;;;2.25;;
27895;SDS011;15241;48.374;10.876;2023-05-07T19:15:16;3.60;;;2.20;;
27895;SDS011;15241;48.374;10.876;2023-05-07T19:20:15;2.52;;;2.33;;
27895;SDS011;15241;48.374;10.876;2023-05-07T19:25:14;3.42;;;2.10;;
27895;SDS011;15241;48.374;10.876;2023-05-07T19:30:13;2.83;;;2.05;;
27895;SDS011;15241;48.374;10.876;2023-05-07T19:35:12;2.65;;;2.15;;
27895;SDS011;15241;48.374;10.876;2023-05-07T19:40:12;3.42;;;2.10;;
27895;SDS011;15241;48.374;10.876;2023-05-07T19:45:13;2.40;;;2.17;;
27895;SDS011;15241;48.374;10.876;2023-05-07T19:50:12;4.35;;;2.22;;
27895;SDS011;15241;48.374;10.876;2023-05-07T19:55:11;1.80;;;1.60;;
27895;SDS011;15241;48.374;10.876;2023-05-07T20:00:11;3.40;;;1.75;;
27895;SDS011;15241;48.374;10.876;2023-05-07T20:05:11;2.40;;;1.52;;
27895;SDS011;15241;48.374;10.876;2023-05-07T20:10:10;1.82;;;1.65;;
27895;SDS011;15241;48.374;10.876;2023-05-07T20:15:10;4.15;;;1.75;;
27895;SDS011;15241;48.374;10.876;2023-05-07T20:20:10;1.90;;;1.30;;
27895;SDS011;15241;48.374;10.876;2023-05-07T20:25:10;2.50;;;1.00;;
27895;SDS011;15241;48.374;10.876;2023-05-07T20:30:10;1.30;;;1.10;;
27895;SDS011;15241;48.374;10.876;2023-05-07T20:35:10;2.02;;;1.37;;
27895;SDS011;15241;48.374;10.876;2023-05-07T20:40:10;1.75;;;1.35;;
27895;SDS011;15241;48.374;10.876;2023-05-07T20:45:10;1.65;;;1.30;;
27895;SDS011;15241;48.374;10.876;2023-05-07T20:50:10;2.67;;;1.27;;
27895;SDS011;15241;48.374;10.876;2023-05-07T20:55:09;1.50;;;1.30;;
27895;SDS011;15241;48.374;10.876;2023-05-07T21:00:09;2.05;;;1.35;;
27895;SDS011;15241;48.374;10.876;2023-05-07T21:05:09;2.15;;;1.50;;
27895;SDS011;15241;48.374;10.876;2023-05-07T21:10:08;2.35;;;1.80;;
27895;SDS011;15241;48.374;10.876;2023-05-07T21:15:09;3.00;;;1.92;;
27895;SDS011;15241;48.374;10.876;2023-05-07T21:20:10;1.75;;;1.60;;
27895;SDS011;15241;48.374;10.876;2023-05-07T21:25:09;1.57;;;1.37;;
27895;SDS011;15241;48.374;10.876;2023-05-07T21:30:10;1.30;;;1.20;;
27895;SDS011;15241;48.374;10.876;2023-05-07T21:35:10;2.02;;;1.32;;
27895;SDS011;15241;48.374;10.876;2023-05-07T21:40:11;2.37;;;1.40;;
27895;SDS011;15241;48.374;10.876;2023-05-07T21:45:12;2.58;;;1.87;;
27895;SDS011;15241;48.374;10.876;2023-05-07T21:50:11;1.87;;;1.60;;
27895;SDS011;15241;48.374;10.876;2023-05-07T21:55:10;2.25;;;1.65;;
27895;SDS011;15241;48.374;10.876;2023-05-07T22:00:10;2.17;;;1.57;;
27895;SDS011;15241;48.374;10.876;2023-05-07T22:05:10;1.77;;;1.55;;
27895;SDS011;15241;48.374;10.876;2023-05-07T22:10:09;3.17;;;1.90;;
27895;SDS011;15241;48.374;10.876;2023-05-07T22:15:09;2.77;;;1.80;;
27895;SDS011;15241;48.374;10.876;2023-05-07T22:20:10;2.30;;;1.82;;
27895;SDS011;15241;48.374;10.876;2023-05-07T22:25:09;1.85;;;1.52;;
27895;SDS011;15241;48.374;10.876;2023-05-07T22:30:10;2.27;;;1.82;;
27895;SDS011;15241;48.374;10.876;2023-05-07T22:35:10;1.92;;;1.80;;
27895;SDS011;15241;48.374;10.876;2023-05-07T22:40:10;3.25;;;2.00;;
27895;SDS011;15241;48.374;10.876;2023-05-07T22:45:10;2.25;;;2.15;;
27895;SDS011;15241;48.374;10.876;2023-05-07T22:50:10;2.52;;;2.00;;
27895;SDS011;15241;48.374;10.876;2023-05-07T22:55:09;3.55;;;2.33;;
27895;SDS011;15241;48.374;10.876;2023-05-07T23:00:09;2.47;;;2.27;;
27895;SDS011;15241;48.374;10.876;2023-05-07T23:05:09;3.72;;;2.60;;
27895;SDS011;15241;48.374;10.876;2023-05-07T23:10:08;2.45;;;2.25;;
27895;SDS011;15241;48.374;10.876;2023-05-07T23:15:08;3.65;;;2.75;;
27895;SDS011;15241;48.374;10.876;2023-05-07T23:20:09;2.92;;;2.42;;
27895;SDS011;15241;48.374;10.876;2023-05-07T23:25:09;3.00;;;2.70;;
27895;SDS011;15241;48.374;10.876;2023-05-07T23:30:10;3.70;;;2.33;;
27895;SDS011;15241;48.374;10.876;2023-05-07T23:35:10;4.12;;;2.90;;
27895;SDS011;15241;48.374;10.876;2023-05-07T23:40:09;3.30;;;2.77;;
27895;SDS011;15241;48.374;10.876;2023-05-07T23:45:09;4.60;;;2.58;;
27895;SDS011;15241;48.374;10.876;2023-05-07T23:50:09;3.33;;;2.72;;
27895;SDS011;15241;48.374;10.876;2023-05-07T23:55:09;3.33;;;3.02;;
